Victoria, Texas
Current Conditions -  °F | °C
As of 12:51 PM on Sunday 21 Dec 2014 (Local Time) from KVCT Reporting Station
Scattered Clouds Scattered Clouds  
Wind Chill: 61°   Ceiling: Unl
Heat Index: 61°   Visibility: 10mi
Dew Point: 51°   Wind: 5mph
Humidity: 70%   Direction: NA
Pressure: 30.03"   Gusts: NA
Location:  28.81°N, 97°W
Report Text: KVCT 211851Z VRB04KT 10SM SCT020 16/11 A3003 RMK AO2 SLP169 T01610106 $
Loading
Personal Weather Stations






























Interactive Weather Map New forecast layout! Learn more

10-Day Weather Forecast

Advertisements
Track Severe Weather on mobile